Time;durP1;ratioP1;P1;durP2;ratioP2;P2;SDS_P1;SDS_P2;PMS_P1;PMS_P2;Temp;Humidity;BMP_temperature;BMP_pressure;BME280_temperature;BME280_humidity;BME280_pressure;Samples;Min_cycle;Max_cycle;Signal;HPM_P1;HPM_P2
2022/11/13 00:00:00;;;;;;;65.25;36.97;;;;;;;11.15;100.00;99755.63;6276986;22;20015;-89
2022/11/13 00:02:32;;;;;;;66.55;36.65;;;;;;;11.15;100.00;99753.00;6250559;22;20012;-88
2022/11/13 00:04:57;;;;;;;66.65;36.38;;;;;;;11.14;100.00;99764.53;6249952;22;20142;-89
2022/11/13 00:07:23;;;;;;;71.82;36.83;;;;;;;11.11;100.00;99759.63;6277619;22;20043;-89
2022/11/13 00:09:48;;;;;;;63.83;35.85;;;;;;;11.09;100.00;99764.25;6277099;22;20489;-88
2022/11/13 00:12:20;;;;;;;70.47;36.72;;;;;;;11.09;100.00;99761.63;6277576;22;20091;-89
2022/11/13 00:14:46;;;;;;;68.15;37.00;;;;;;;11.05;100.00;99752.47;6223638;22;20015;-88
2022/11/13 00:17:11;;;;;;;81.63;40.58;;;;;;;11.09;100.00;99762.44;6223064;22;20065;-88
2022/11/13 00:19:38;;;;;;;77.18;40.08;;;;;;;11.10;100.00;99764.09;6224912;22;20012;-88
2022/11/13 00:22:03;;;;;;;77.95;39.22;;;;;;;11.12;100.00;99763.88;6224000;22;20875;-88
2022/11/13 00:24:29;;;;;;;64.85;35.42;;;;;;;11.06;100.00;99757.53;6249672;22;20016;-88
2022/11/13 00:26:54;;;;;;;78.65;40.13;;;;;;;11.10;100.00;99763.25;6276592;22;20437;-89
2022/11/13 00:29:20;;;;;;;77.30;40.55;;;;;;;11.09;100.00;99748.50;6277105;22;20008;-88
2022/11/13 00:31:46;;;;;;;94.45;45.67;;;;;;;11.07;100.00;99751.28;6276032;22;20079;-88
2022/11/13 00:34:11;;;;;;;81.30;39.72;;;;;;;11.10;100.00;99747.50;6276773;22;20058;-88
2022/11/13 00:36:38;;;;;;;77.93;40.47;;;;;;;11.11;100.00;99746.50;6250021;22;20042;-88
2022/11/13 00:39:04;;;;;;;82.82;41.70;;;;;;;11.14;100.00;99736.44;6276089;22;20414;-88
2022/11/13 00:41:30;;;;;;;82.40;40.90;;;;;;;11.18;100.00;99738.72;6275865;22;20022;-88
2022/11/13 00:43:57;;;;;;;83.45;40.78;;;;;;;11.22;100.00;99750.47;6276137;22;20058;-88
2022/11/13 00:46:23;;;;;;;76.63;40.03;;;;;;;11.19;100.00;99746.38;6276110;22;20459;-88
2022/11/13 00:48:49;;;;;;;78.57;40.60;;;;;;;11.21;100.00;99743.59;6276084;22;20008;-89
2022/11/13 00:51:14;;;;;;;74.05;38.88;;;;;;;11.21;100.00;99743.59;6275887;22;20438;-88
2022/11/13 00:53:40;;;;;;;75.18;40.38;;;;;;;11.25;100.00;99750.13;6276458;22;20012;-90
2022/11/13 00:56:08;;;;;;;84.75;41.00;;;;;;;11.21;100.00;99749.69;6249251;22;20015;-88
2022/11/13 00:58:35;;;;;;;84.20;42.13;;;;;;;11.20;100.00;99745.41;6276265;22;20388;-88
2022/11/13 01:01:11;;;;;;;76.03;41.83;;;;;;;11.18;100.00;99736.06;6276531;22;20007;-88
2022/11/13 01:03:47;;;;;;;96.13;43.53;;;;;;;11.12;100.00;99729.72;6276265;22;20007;-89
2022/11/13 01:06:18;;;;;;;75.18;40.38;;;;;;;11.15;100.00;99734.63;6276523;22;20042;-88
2022/11/13 01:08:47;;;;;;;78.97;39.42;;;;;;;11.13;100.00;99726.94;6248879;22;20011;-88
2022/11/13 01:11:19;;;;;;;78.97;41.55;;;;;;;11.17;100.00;99729.19;6223859;22;20008;-89
2022/11/13 01:13:50;;;;;;;82.60;41.47;;;;;;;11.16;100.00;99736.25;6276507;22;20079;-88
2022/11/13 01:16:19;;;;;;;90.88;42.25;;;;;;;11.15;100.00;99729.34;6248411;22;20011;-87
2022/11/13 01:18:48;;;;;;;81.07;40.60;;;;;;;11.12;100.00;99732.34;6248918;22;20394;-87
2022/11/13 01:21:20;;;;;;;80.45;40.50;;;;;;;11.14;100.00;99733.00;6248686;22;20012;-85
2022/11/13 01:23:46;;;;;;;81.53;39.53;;;;;;;11.10;100.00;99723.84;6275897;22;20066;-87
2022/11/13 01:26:19;;;;;;;77.72;38.90;;;;;;;11.05;100.00;99713.88;6275824;22;20145;-88
2022/11/13 01:28:45;;;;;;;69.75;36.53;;;;;;;11.04;100.00;99716.69;6276988;22;20442;-89
2022/11/13 01:31:15;;;;;;;83.40;39.47;;;;;;;11.00;100.00;99719.69;6276871;22;20007;-88
2022/11/13 01:33:41;;;;;;;75.25;39.50;;;;;;;10.98;100.00;99719.03;6276392;22;20426;-88
2022/11/13 01:36:12;;;;;;;102.53;44.97;;;;;;;10.99;100.00;99731.16;6276668;22;20014;-88
2022/11/13 01:38:37;;;;;;;85.78;40.38;;;;;;;11.03;100.00;99725.56;6276455;22;20431;-88
2022/11/13 01:41:05;;;;;;;85.57;43.30;;;;;;;11.06;100.00;99725.22;6276522;22;20015;-88
2022/11/13 01:43:33;;;;;;;93.38;43.15;;;;;;;11.04;100.00;99719.31;6223622;22;20011;-88
2022/11/13 01:46:17;;;;;;;79.75;40.95;;;;;;;11.05;100.00;99713.06;6275961;22;20015;-88
2022/11/13 01:48:47;;;;;;;63.72;30.00;;;;;;;11.00;100.00;99717.06;6276353;22;20020;-88
2022/11/13 01:51:18;;;;;;;86.43;41.35;;;;;;;10.94;100.00;99717.75;6275978;22;20015;-88
2022/11/13 01:53:45;;;;;;;83.72;41.33;;;;;;;10.96;100.00;99713.13;6249035;22;20004;-88
2022/11/13 01:56:13;;;;;;;83.15;40.42;;;;;;;10.91;100.00;99715.50;6275646;22;20007;-89
2022/11/13 01:58:41;;;;;;;82.70;42.13;;;;;;;10.91;100.00;99707.63;6248157;22;20016;-88
2022/11/13 02:01:07;;;;;;;92.78;43.97;;;;;;;10.83;100.00;99705.09;6275195;22;20007;-88
2022/11/13 02:03:33;;;;;;;89.70;42.30;;;;;;;10.78;100.00;99704.78;6275667;22;20012;-89
2022/11/13 02:05:59;;;;;;;86.57;42.28;;;;;;;10.75;100.00;99697.28;6276166;22;20018;-87
2022/11/13 02:08:25;;;;;;;80.28;41.60;;;;;;;10.73;100.00;99700.09;6275388;22;20023;-85
2022/11/13 02:10:51;;;;;;;85.00;40.47;;;;;;;10.69;100.00;99694.38;6275629;22;20449;-89
2022/11/13 02:13:20;;;;;;;115.28;46.88;;;;;;;10.68;100.00;99684.88;6275533;22;20426;-88
2022/11/13 02:15:46;;;;;;;82.45;40.40;;;;;;;10.83;100.00;99687.50;6248358;22;20499;-89
2022/11/13 02:18:14;;;;;;;99.28;42.58;;;;;;;11.02;100.00;99687.16;6275346;22;20077;-88
2022/11/13 02:20:52;;;;;;;98.32;44.55;;;;;;;11.16;100.00;99693.41;6275300;22;20007;-88
2022/11/13 02:23:34;;;;;;;123.53;48.88;;;;;;;11.32;100.00;99692.38;6275251;22;20011;-88
2022/11/13 02:26:01;;;;;;;133.20;51.05;;;;;;;11.40;100.00;99687.03;6275773;22;20012;-89
2022/11/13 02:28:27;;;;;;;99.50;45.90;;;;;;;11.56;100.00;99678.91;6248998;22;20069;-87
2022/11/13 02:30:53;;;;;;;132.95;51.65;;;;;;;11.57;100.00;99675.28;6275862;22;20445;-88
2022/11/13 02:33:30;;;;;;;110.97;47.25;;;;;;;11.74;100.00;99680.31;6275534;22;20008;-88
2022/11/13 02:35:56;;;;;;;103.22;47.53;;;;;;;11.83;100.00;99689.75;6275607;22;20008;-88
2022/11/13 02:38:21;;;;;;;109.88;47.15;;;;;;;11.88;100.00;99689.16;6275139;22;20007;-88
2022/11/13 02:40:47;;;;;;;103.75;45.97;;;;;;;11.94;100.00;99687.59;6247926;22;20034;-89
2022/11/13 02:43:12;;;;;;;118.88;47.10;;;;;;;11.94;100.00;99684.97;6274608;22;20019;-88
2022/11/13 02:45:38;;;;;;;128.35;51.42;;;;;;;12.04;100.00;99677.63;6274662;22;20015;-88
2022/11/13 02:48:06;;;;;;;142.40;51.33;;;;;;;11.96;100.00;99698.75;6274656;22;20018;-86
2022/11/13 02:50:33;;;;;;;154.48;53.45;;;;;;;12.05;100.00;99684.53;6274806;22;20083;-89
2022/11/13 02:52:58;;;;;;;125.70;52.28;;;;;;;12.21;100.00;99691.34;6247170;22;20050;-87
2022/11/13 02:55:24;;;;;;;130.77;51.92;;;;;;;12.20;100.00;99683.66;6276288;22;20449;-89
2022/11/13 02:57:49;;;;;;;113.75;47.47;;;;;;;12.24;100.00;99680.44;6250186;22;20011;-89
2022/11/13 03:00:16;;;;;;;119.25;49.03;;;;;;;12.31;100.00;99677.84;6249712;22;20442;-89
2022/11/13 03:02:41;;;;;;;134.27;49.55;;;;;;;12.31;100.00;99683.13;6277090;22;20012;-88
2022/11/13 03:05:07;;;;;;;107.05;45.83;;;;;;;12.37;100.00;99678.91;6276733;22;20413;-89
2022/11/13 03:07:33;;;;;;;115.85;49.92;;;;;;;12.39;100.00;99669.00;6249321;22;20011;-88
2022/11/13 03:09:58;;;;;;;115.47;50.53;;;;;;;12.37;100.00;99671.81;6277429;22;20015;-88
2022/11/13 03:12:24;;;;;;;113.32;47.80;;;;;;;12.36;100.00;99657.03;6277052;22;20007;-88
2022/11/13 03:14:50;;;;;;;106.97;46.75;;;;;;;12.40;100.00;99653.03;6277473;22;20016;-88
2022/11/13 03:17:15;;;;;;;120.43;50.10;;;;;;;12.38;100.00;99649.78;6277304;22;20528;-88
2022/11/13 03:19:41;;;;;;;174.02;56.35;;;;;;;12.20;100.00;99647.59;6277236;22;21534;-88
2022/11/13 03:22:07;;;;;;;131.07;50.22;;;;;;;12.37;100.00;99653.41;6276771;22;20095;-88
2022/11/13 03:24:32;;;;;;;131.30;52.35;;;;;;;12.35;100.00;99639.59;6277205;22;20406;-89
2022/11/13 03:26:58;;;;;;;123.63;50.75;;;;;;;12.31;100.00;99641.00;6277603;22;20008;-87
2022/11/13 03:29:24;;;;;;;130.93;53.47;;;;;;;12.33;100.00;99641.63;6277528;22;20019;-88
2022/11/13 03:31:49;;;;;;;122.75;49.92;;;;;;;12.39;100.00;99640.88;6276695;22;20008;-89
2022/11/13 03:34:16;;;;;;;124.50;52.05;;;;;;;12.38;100.00;99633.16;6277333;22;20008;-88
2022/11/13 03:36:41;;;;;;;137.85;52.10;;;;;;;12.32;100.00;99626.84;6249773;22;20354;-88
2022/11/13 03:39:07;;;;;;;117.72;51.92;;;;;;;12.36;100.00;99630.69;6249792;22;20044;-89
2022/11/13 03:41:32;;;;;;;122.65;51.38;;;;;;;12.32;100.00;99621.56;6249566;22;20020;-88
2022/11/13 03:43:58;;;;;;;116.28;50.05;;;;;;;12.35;100.00;99618.56;6276919;22;20078;-88
2022/11/13 03:46:23;;;;;;;109.40;50.65;;;;;;;12.31;100.00;99621.78;6276703;22;20070;-88
2022/11/13 03:48:49;;;;;;;137.63;52.15;;;;;;;12.33;100.00;99625.03;6250377;22;20011;-88
2022/11/13 03:51:14;;;;;;;121.53;50.67;;;;;;;12.35;100.00;99615.91;6276924;22;20046;-88
2022/11/13 03:53:41;;;;;;;120.85;51.63;;;;;;;12.34;100.00;99616.94;6250011;22;20035;-88
2022/11/13 03:56:06;;;;;;;105.95;47.65;;;;;;;12.39;100.00;99629.53;6277226;22;20011;-89
2022/11/13 03:58:32;;;;;;;119.70;50.78;;;;;;;12.39;100.00;99624.25;6277254;22;20008;-87
2022/11/13 04:00:58;;;;;;;127.68;52.05;;;;;;;12.39;100.00;99625.09;6277175;22;20065;-87
2022/11/13 04:03:26;;;;;;;112.05;49.97;;;;;;;12.37;100.00;99627.06;6277229;22;20430;-88
2022/11/13 04:05:52;;;;;;;118.10;49.55;;;;;;;12.37;100.00;99610.47;6277460;22;20021;-88
2022/11/13 04:08:18;;;;;;;130.77;49.67;;;;;;;12.37;100.00;99606.00;6278827;22;20086;-88
2022/11/13 04:10:44;;;;;;;114.90;48.33;;;;;;;12.41;100.00;99607.28;6284670;22;20011;-88
2022/11/13 04:13:10;;;;;;;97.80;45.58;;;;;;;12.46;100.00;99603.25;6287054;22;20007;-87
2022/11/13 04:15:36;;;;;;;114.75;48.20;;;;;;;12.41;100.00;99601.19;6285757;22;20087;-87
2022/11/13 04:18:03;;;;;;;112.90;47.42;;;;;;;12.35;100.00;99608.03;6279815;22;20065;-87
2022/11/13 04:20:29;;;;;;;116.72;48.72;;;;;;;12.36;100.00;99603.59;6250379;22;20008;-88
2022/11/13 04:22:56;;;;;;;103.55;45.95;;;;;;;12.45;100.00;99617.41;6277064;22;20019;-88
2022/11/13 04:25:22;;;;;;;181.82;52.38;;;;;;;12.37;100.00;99619.16;6250412;22;20007;-88
2022/11/13 04:27:51;;;;;;;140.88;51.10;;;;;;;12.46;100.00;99613.78;6276636;22;20527;-88
2022/11/13 04:30:17;;;;;;;119.47;48.08;;;;;;;12.46;100.00;99611.13;6250102;22;20018;-88
2022/11/13 04:32:43;;;;;;;119.53;52.40;;;;;;;12.42;100.00;99611.53;6249748;22;20069;-88
2022/11/13 04:35:09;;;;;;;139.00;54.72;;;;;;;12.37;100.00;99606.00;6276601;22;20008;-89
2022/11/13 04:37:34;;;;;;;190.10;55.80;;;;;;;12.23;100.00;99605.09;6276729;22;20460;-88
2022/11/13 04:40:00;;;;;;;126.90;52.13;;;;;;;12.24;100.00;99608.56;6249865;22;20008;-87
2022/11/13 04:45:10;;;;;;;188.57;53.47;;;;;;;12.06;100.00;99601.94;6276742;22;20369;-87
2022/11/13 04:47:36;;;;;;;388.35;62.70;;;;;;;12.04;100.00;99601.34;6276419;22;20052;-88
2022/11/13 04:50:02;;;;;;;221.80;52.92;;;;;;;12.01;100.00;99596.44;6276761;22;20012;-88
2022/11/13 04:52:28;;;;;;;179.88;50.65;;;;;;;12.02;100.00;99592.00;6276535;22;20053;-88
2022/11/13 04:54:54;;;;;;;186.32;50.53;;;;;;;12.08;100.00;99592.03;6276671;22;20012;-87
2022/11/13 04:57:20;;;;;;;284.00;56.15;;;;;;;12.09;100.00;99596.31;6276922;22;20018;-88
2022/11/13 04:59:45;;;;;;;225.30;52.17;;;;;;;11.89;100.00;99587.41;6277004;22;20501;-88
2022/11/13 05:02:11;;;;;;;114.95;46.13;;;;;;;11.97;100.00;99589.88;6276651;22;20018;-88
2022/11/13 05:04:37;;;;;;;214.10;51.17;;;;;;;11.89;100.00;99596.13;6224110;22;20055;-88
2022/11/13 05:07:02;;;;;;;234.90;53.92;;;;;;;11.83;100.00;99574.00;6276179;22;20472;-88
2022/11/13 05:09:28;;;;;;;136.93;46.70;;;;;;;11.81;100.00;99591.81;6276256;22;20008;-88
2022/11/13 05:11:53;;;;;;;158.35;47.13;;;;;;;11.76;100.00;99583.66;6249239;22;20460;-88
2022/11/13 05:14:19;;;;;;;311.00;57.10;;;;;;;11.78;100.00;99572.94;6249596;22;20089;-87
2022/11/13 05:16:44;;;;;;;171.60;46.15;;;;;;;11.80;100.00;99574.41;6275452;22;20050;-87
2022/11/13 05:19:10;;;;;;;146.85;46.42;;;;;;;11.68;100.00;99575.91;6249211;22;20007;-88
2022/11/13 05:21:37;;;;;;;106.05;42.50;;;;;;;11.77;100.00;99572.13;6248576;22;20043;-88
2022/11/13 05:24:03;;;;;;;102.97;45.17;;;;;;;11.76;100.00;99562.59;6248622;22;20015;-88
2022/11/13 05:26:29;;;;;;;86.40;42.03;;;;;;;11.76;100.00;99565.22;6276741;22;20034;-88
2022/11/13 05:28:59;;;;;;;110.70;45.70;;;;;;;11.71;100.00;99570.25;6249421;22;20012;-89
2022/11/13 05:31:25;;;;;;;144.40;46.00;;;;;;;11.79;100.00;99567.50;6249645;22;20434;-88
2022/11/13 05:33:52;;;;;;;153.73;46.08;;;;;;;11.74;100.00;99561.19;6276575;22;20003;-88
2022/11/13 05:36:18;;;;;;;147.57;45.45;;;;;;;11.70;100.00;99560.75;6276231;22;20034;-88
2022/11/13 05:38:44;;;;;;;129.25;45.70;;;;;;;11.64;100.00;99553.63;6249038;22;20012;-88
2022/11/13 05:41:20;;;;;;;226.57;48.90;;;;;;;11.61;100.00;99548.75;6249405;22;20015;-88
2022/11/13 05:43:46;;;;;;;105.35;43.15;;;;;;;11.56;100.00;99542.19;6275839;22;20011;-88
2022/11/13 05:46:14;;;;;;;124.38;46.67;;;;;;;11.56;100.00;99546.66;6275672;22;20089;-88
2022/11/13 05:48:41;;;;;;;89.75;43.50;;;;;;;11.64;100.00;99556.25;6275742;22;20007;-88
2022/11/13 05:51:16;;;;;;;101.15;44.58;;;;;;;11.61;100.00;99554.78;6276268;22;20436;-88
2022/11/13 05:53:42;;;;;;;95.20;43.67;;;;;;;11.64;100.00;99551.78;6248913;22;20008;-88
2022/11/13 05:56:14;;;;;;;117.43;45.70;;;;;;;11.65;100.00;99560.50;6248833;22;20042;-88
2022/11/13 05:58:41;;;;;;;88.72;42.15;;;;;;;11.64;100.00;99561.50;6275974;22;20012;-88
2022/11/13 06:01:10;;;;;;;176.98;48.55;;;;;;;11.66;100.00;99570.00;6248125;22;20011;-88
2022/11/13 06:03:37;;;;;;;100.45;41.80;;;;;;;11.66;100.00;99562.91;6275644;22;20008;-88
2022/11/13 06:06:04;;;;;;;82.75;40.00;;;;;;;11.65;100.00;99556.03;6275567;22;20012;-88
2022/11/13 06:08:29;;;;;;;86.07;40.25;;;;;;;11.68;100.00;99557.50;6249211;22;20042;-89
2022/11/13 06:11:03;;;;;;;151.18;42.63;;;;;;;11.66;100.00;99562.13;6275294;22;20016;-87
2022/11/13 06:13:29;;;;;;;77.70;39.42;;;;;;;11.68;100.00;99570.63;6248658;22;20071;-88
2022/11/13 06:16:00;;;;;;;267.08;46.92;;;;;;;11.55;100.00;99572.13;6276824;22;20465;-88
2022/11/13 06:18:26;;;;;;;88.35;39.78;;;;;;;11.61;100.00;99570.56;6275469;22;20351;-89
2022/11/13 06:20:51;;;;;;;82.55;37.55;;;;;;;11.60;100.00;99568.16;6275688;22;20023;-88
2022/11/13 06:23:18;;;;;;;81.68;37.03;;;;;;;11.58;100.00;99569.13;6242783;23;20012;-88
2022/11/13 06:25:43;;;;;;;234.13;48.38;;;;;;;11.46;100.00;99568.00;6243616;23;20046;-89
2022/11/13 06:28:09;;;;;;;89.85;36.58;;;;;;;11.47;100.00;99568.81;6242142;23;20307;-82
2022/11/13 06:30:34;;;;;;;79.95;35.35;;;;;;;11.53;100.00;99568.06;6242991;22;20016;-82
2022/11/13 06:33:00;;;;;;;75.18;37.60;;;;;;;11.53;100.00;99573.34;6241890;23;20012;-83
2022/11/13 06:35:25;;;;;;;91.97;37.47;;;;;;;11.47;100.00;99563.53;6243670;23;20012;-84
2022/11/13 06:37:53;;;;;;;78.22;36.22;;;;;;;11.53;100.00;99563.63;6244020;22;20012;-84
2022/11/13 06:40:19;;;;;;;168.10;42.00;;;;;;;11.50;100.00;99558.75;6242612;23;20016;-83
2022/11/13 06:42:45;;;;;;;76.40;33.42;;;;;;;11.51;100.00;99567.44;6241830;23;20031;-83
2022/11/13 06:45:10;;;;;;;98.15;35.15;;;;;;;11.46;100.00;99562.75;6241445;23;20012;-83
2022/11/13 06:47:36;;;;;;;74.75;35.00;;;;;;;11.49;100.00;99551.84;6243733;23;20008;-84
2022/11/13 06:50:01;;;;;;;96.57;35.92;;;;;;;11.53;100.00;99553.09;6241958;23;20019;-83
2022/11/13 06:52:27;;;;;;;257.77;43.60;;;;;;;11.45;100.00;99553.25;6243258;22;20048;-83
2022/11/13 06:54:52;;;;;;;334.40;46.53;;;;;;;11.39;100.00;99561.84;6243805;23;20086;-84
2022/11/13 06:57:18;;;;;;;74.82;31.42;;;;;;;11.38;100.00;99560.22;6244020;22;20012;-84
2022/11/13 06:59:44;;;;;;;143.95;36.53;;;;;;;11.32;100.00;99558.34;6241666;23;20024;-84
2022/11/13 07:02:10;;;;;;;160.40;36.55;;;;;;;11.16;100.00;99547.06;6243712;23;20066;-83
2022/11/13 07:04:36;;;;;;;282.67;44.67;;;;;;;11.10;100.00;99561.78;6241708;23;20012;-84
2022/11/13 07:07:03;;;;;;;234.60;42.53;;;;;;;11.08;100.00;99552.44;6242183;23;20449;-83
2022/11/13 07:09:29;;;;;;;207.38;35.55;;;;;;;11.04;100.00;99538.84;6242037;23;20012;-84
2022/11/13 07:11:55;;;;;;;456.63;52.38;;;;;;;11.00;100.00;99553.38;6216403;23;20012;-82
2022/11/13 07:14:21;;;;;;;109.75;34.70;;;;;;;10.98;100.00;99545.66;6243008;22;20494;-84
2022/11/13 07:16:49;;;;;;;81.32;34.65;;;;;;;10.99;100.00;99549.91;6242892;22;20799;-83
2022/11/13 07:19:15;;;;;;;102.28;33.08;;;;;;;10.99;100.00;99547.28;6241854;23;20012;-83
2022/11/13 07:21:40;;;;;;;66.60;32.92;;;;;;;10.98;100.00;99536.97;6248269;22;20019;-84
2022/11/13 07:24:06;;;;;;;111.10;33.08;;;;;;;10.96;100.00;99547.66;6246276;22;20062;-83
2022/11/13 07:26:32;;;;;;;75.70;34.08;;;;;;;10.96;100.00;99545.03;6273384;22;20018;-83
2022/11/13 07:28:57;;;;;;;63.63;30.98;;;;;;;11.00;100.00;99548.09;6273907;22;20008;-83
2022/11/13 07:31:23;;;;;;;117.07;32.80;;;;;;;10.90;100.00;99548.41;6273942;22;20023;-83
2022/11/13 07:33:49;;;;;;;145.07;40.38;;;;;;;10.93;100.00;99552.47;6273880;22;20003;-83
2022/11/13 07:36:14;;;;;;;120.07;34.42;;;;;;;11.02;100.00;99563.69;6274063;22;20070;-83
2022/11/13 07:38:40;;;;;;;119.88;34.15;;;;;;;10.99;100.00;99557.00;6273544;22;20012;-84
2022/11/13 07:41:06;;;;;;;57.08;28.05;;;;;;;11.10;100.00;99563.56;6223512;22;20078;-84
2022/11/13 07:43:33;;;;;;;197.73;36.13;;;;;;;11.03;100.00;99574.00;6274087;22;20035;-84
2022/11/13 07:45:59;;;;;;;55.45;28.63;;;;;;;11.20;100.00;99579.88;6274301;22;20015;-82
2022/11/13 07:48:29;;;;;;;74.13;29.80;;;;;;;11.31;100.00;99591.72;6275539;22;20463;-82
2022/11/13 07:50:58;;;;;;;56.33;28.17;;;;;;;11.38;100.00;99592.59;6248148;22;20374;-82
2022/11/13 07:53:23;;;;;;;140.98;32.67;;;;;;;11.35;100.00;99586.88;6274887;22;20077;-82
2022/11/13 07:55:49;;;;;;;57.45;29.27;;;;;;;11.42;100.00;99598.31;6274640;22;20087;-82
2022/11/13 07:58:15;;;;;;;50.80;26.73;;;;;;;11.51;100.00;99602.44;6274705;22;20026;-82
2022/11/13 08:00:41;;;;;;;133.77;30.85;;;;;;;11.47;100.00;99595.09;6248485;22;20033;-82
2022/11/13 08:03:12;;;;;;;133.63;29.42;;;;;;;11.43;100.00;99592.03;6248487;22;20083;-83
2022/11/13 08:05:38;;;;;;;445.00;43.58;;;;;;;11.23;100.00;99590.00;6274181;22;20012;-83
2022/11/13 08:08:04;;;;;;;77.75;25.85;;;;;;;11.39;100.00;99583.72;6274641;22;20491;-82
2022/11/13 08:10:30;;;;;;;118.15;28.55;;;;;;;11.38;100.00;99591.75;6275140;22;20065;-82
2022/11/13 08:13:04;;;;;;;79.47;25.77;;;;;;;11.42;100.00;99582.53;6273513;22;20004;-82
2022/11/13 08:15:31;;;;;;;84.53;23.92;;;;;;;11.29;100.00;99584.00;6275055;22;20393;-82
2022/11/13 08:17:58;;;;;;;243.60;29.92;;;;;;;11.13;100.00;99595.56;6274986;22;20039;-84
2022/11/13 08:20:25;;;;;;;194.60;25.73;;;;;;;11.14;100.00;99597.19;6247825;22;20342;-84
2022/11/13 08:22:51;;;;;;;126.88;24.48;;;;;;;11.24;100.00;99596.06;6241889;23;20012;-82
2022/11/13 08:25:17;;;;;;;77.28;21.67;;;;;;;11.22;100.00;99591.00;6242488;23;20342;-83
2022/11/13 08:27:44;;;;;;;183.52;25.95;;;;;;;11.31;100.00;99585.63;6242474;23;20450;-83
2022/11/13 08:30:11;;;;;;;200.38;25.10;;;;;;;11.35;100.00;99584.25;6246260;23;20042;-84
2022/11/13 08:32:37;;;;;;;174.32;26.88;;;;;;;11.43;100.00;99571.00;6244837;22;20004;-84
2022/11/13 08:35:02;;;;;;;35.90;19.73;;;;;;;11.54;100.00;99580.22;6243299;23;20355;-83
2022/11/13 08:37:28;;;;;;;69.45;21.88;;;;;;;11.52;100.00;99577.75;6244513;22;20015;-83
2022/11/13 08:39:57;;;;;;;205.63;27.23;;;;;;;11.58;100.00;99569.13;6245008;22;20012;-83
2022/11/13 08:42:22;;;;;;;206.65;26.80;;;;;;;11.52;100.00;99562.00;6243418;23;20008;-83
2022/11/13 08:44:48;;;;;;;264.75;30.08;;;;;;;11.51;100.00;99568.25;6245060;22;20390;-82
2022/11/13 08:47:14;;;;;;;85.68;21.90;;;;;;;11.55;100.00;99569.50;6245223;22;20019;-83
2022/11/13 08:49:39;;;;;;;40.88;21.17;;;;;;;11.57;100.00;99569.31;6244698;23;20012;-83
2022/11/13 08:52:08;;;;;;;58.10;20.90;;;;;;;11.76;100.00;99572.31;6243764;22;20019;-83
2022/11/13 08:54:36;;;;;;;40.67;20.58;;;;;;;11.76;100.00;99567.88;6243556;22;20012;-82
2022/11/13 08:57:02;;;;;;;53.58;22.70;;;;;;;11.85;100.00;99568.53;6244694;23;20350;-82
2022/11/13 08:59:28;;;;;;;52.08;21.70;;;;;;;11.83;100.00;99568.75;6243056;23;20465;-82
2022/11/13 09:01:59;;;;;;;219.20;28.23;;;;;;;11.75;100.00;99566.25;6244719;22;20011;-80
2022/11/13 09:04:26;;;;;;;165.70;28.95;;;;;;;11.85;100.00;99572.00;6244066;22;20090;-79
2022/11/13 09:06:51;;;;;;;41.35;20.38;;;;;;;11.86;100.00;99568.38;6244065;22;20486;-81
2022/11/13 09:09:18;;;;;;;92.47;22.65;;;;;;;11.83;100.00;99568.75;6243965;22;20442;-84
2022/11/13 09:11:45;;;;;;;37.50;20.08;;;;;;;11.94;100.00;99566.59;6244493;22;20496;-82
2022/11/13 09:14:10;;;;;;;200.93;28.52;;;;;;;11.82;100.00;99561.88;6243865;22;20035;-84
2022/11/13 09:16:36;;;;;;;40.42;21.73;;;;;;;12.07;100.00;99563.28;6243910;22;20423;-85
2022/11/13 09:19:02;;;;;;;44.47;23.98;;;;;;;12.12;100.00;99556.44;6244037;23;20039;-85
2022/11/13 09:21:28;;;;;;;50.45;26.50;;;;;;;12.25;100.00;99562.81;6245135;22;20016;-82
2022/11/13 09:23:54;;;;;;;61.88;26.83;;;;;;;12.41;100.00;99559.88;6274386;22;20015;-84
2022/11/13 09:26:20;;;;;;;53.47;24.00;;;;;;;12.34;100.00;99559.00;6247796;22;20007;-83
2022/11/13 09:28:47;;;;;;;40.47;22.25;;;;;;;12.22;100.00;99550.84;6273615;22;20342;-83
2022/11/13 09:31:14;;;;;;;46.80;22.48;;;;;;;12.38;100.00;99559.44;6274819;22;20083;-83
2022/11/13 09:33:42;;;;;;;49.85;21.42;;;;;;;12.47;100.00;99557.47;6222917;22;20010;-80
2022/11/13 09:36:13;;;;;;;37.30;19.67;;;;;;;12.56;100.00;99551.84;6248014;22;20098;-79
2022/11/13 09:38:41;;;;;;;43.47;20.48;;;;;;;12.54;100.00;99558.31;6274747;22;20030;-77
2022/11/13 09:41:10;;;;;;;40.42;18.95;;;;;;;12.60;100.00;99552.28;6274945;22;20014;-78
2022/11/13 09:43:52;;;;;;;32.53;18.48;;;;;;;12.77;100.00;99559.84;6222059;22;20330;-78
2022/11/13 09:46:23;;;;;;;;;;;;;;;12.79;100.00;99555.22;6275985;22;20017;-78
2022/11/13 09:48:54;;;;;;;74.78;20.23;;;;;;;12.54;100.00;99553.03;6275075;22;19910;-78
2022/11/13 09:51:26;;;;;;;60.88;19.13;;;;;;;12.49;100.00;99552.81;6276278;22;20016;-78
2022/11/13 09:53:53;;;;;;;34.38;18.58;;;;;;;12.51;100.00;99559.53;6222594;22;20458;-77
2022/11/13 09:56:31;;;;;;;58.28;17.83;;;;;;;12.52;100.00;99560.34;6248164;22;20008;-78
2022/11/13 09:59:22;;;;;;;40.70;18.67;;;;;;;12.76;100.00;99550.31;6275147;22;20073;-78
2022/11/13 10:02:01;;;;;;;74.50;18.85;;;;;;;12.79;100.00;99549.94;6248546;22;20084;-78
2022/11/13 10:04:44;;;;;;;120.75;20.52;;;;;;;12.80;100.00;99547.09;6274070;22;20387;-79
2022/11/13 10:07:26;;;;;;;25.92;16.35;;;;;;;12.97;100.00;99547.59;6275057;22;20008;-79
2022/11/13 10:10:16;;;;;;;29.45;17.35;;;;;;;13.10;100.00;99545.97;6275554;22;20019;-79
2022/11/13 10:12:45;;;;;;;26.65;17.17;;;;;;;13.18;100.00;99547.63;6248619;22;20022;-79
2022/11/13 10:15:12;;;;;;;42.42;19.15;;;;;;;13.18;100.00;99548.47;6275389;22;20007;-78
2022/11/13 10:18:15;;;;;;;30.00;16.70;;;;;;;13.34;100.00;99549.06;6274356;22;20011;-79
2022/11/13 10:20:56;;;;;;;56.80;19.25;;;;;;;13.33;100.00;99550.91;6248165;22;20015;-80
2022/11/13 10:23:30;;;;;;;38.72;18.58;;;;;;;13.37;100.00;99540.78;6274588;22;20019;-79
2022/11/13 10:26:06;;;;;;;29.50;16.55;;;;;;;13.33;100.00;99539.53;6249138;22;20037;-80
2022/11/13 10:28:32;;;;;;;27.52;16.10;;;;;;;13.42;100.00;99544.44;6248225;22;20345;-80
2022/11/13 10:30:58;;;;;;;30.92;17.38;;;;;;;13.45;100.00;99543.25;6246003;22;20012;-83
2022/11/13 10:33:24;;;;;;;67.05;19.35;;;;;;;13.35;100.00;99542.78;6221666;22;20039;-81
2022/11/13 10:36:13;;;;;;;29.40;16.45;;;;;;;13.38;100.00;99534.50;6222024;22;20022;-81
2022/11/13 10:38:43;;;;;;;56.75;18.35;;;;;;;13.36;100.00;99539.97;6274644;22;20112;-81
2022/11/13 10:41:13;;;;;;;65.22;17.52;;;;;;;13.42;100.00;99533.09;6274555;22;20008;-83
2022/11/13 10:43:51;;;;;;;36.17;18.80;;;;;;;13.48;100.00;99540.22;6247710;22;20093;-81
2022/11/13 10:46:23;;;;;;;40.88;17.95;;;;;;;13.65;100.00;99547.75;6221822;22;20034;-83
2022/11/13 10:48:50;;;;;;;27.08;16.85;;;;;;;13.63;100.00;99529.47;6274879;22;20035;-80
2022/11/13 10:51:24;;;;;;;34.00;17.88;;;;;;;13.56;100.00;99537.41;6221644;22;20334;-82
2022/11/13 10:53:50;;;;;;;30.45;16.02;;;;;;;13.46;100.00;99534.31;6274843;22;20016;-83
2022/11/13 10:56:29;;;;;;;45.30;18.48;;;;;;;13.45;100.00;99543.25;6274543;22;20374;-83
2022/11/13 10:59:15;;;;;;;36.40;19.35;;;;;;;13.53;100.00;99540.41;6247405;22;20015;-83
2022/11/13 11:01:42;;;;;;;26.73;16.33;;;;;;;13.67;100.00;99537.78;6247457;22;20015;-84
2022/11/13 11:04:18;;;;;;;33.38;17.67;;;;;;;13.82;100.00;99543.69;6222107;22;20350;-82
2022/11/13 11:06:44;;;;;;;33.40;18.92;;;;;;;13.60;100.00;99539.63;6246992;22;20015;-84
2022/11/13 11:09:24;;;;;;;34.25;17.52;;;;;;;13.53;100.00;99529.88;6247165;22;20065;-80
2022/11/13 11:12:23;;;;;;;26.52;17.20;;;;;;;13.74;100.00;99521.97;6222068;22;20090;-81